This is the latest recevied weather packets stored in our database for station/object HB9FRQ-10. If no packets are shown the sender has not sent any weather packets the latest 1 day(s).
| Time | Temp. | Humidity | Pressure | Rain* | Wind** | Luminosity | Snow |
|---|---|---|---|---|---|---|---|
| 1788574191 | 20.56° C | 69% | 1021.5 hPa | - | - | - | - |
| 1788573291 | 20° C | 71% | 1021.5 hPa | - | - | - | - |
| 1788572390 | 20° C | 74% | 1021.1 hPa | - | - | - | - |
| 1788571490 | 19.44° C | 76% | 1021 hPa | - | - | - | - |
| 1788570590 | 18.33° C | 96% | 1020.9 hPa | - | - | - | - |
| 1788569689 | 18.33° C | 93% | 1021 hPa | - | - | - | - |
| 1788568789 | 18.33° C | 93% | 1020.9 hPa | - | - | - | - |
| 1788567889 | 18.33° C | 95% | 1020.9 hPa | - | - | - | - |
| 1788566989 | 18.33° C | 94% | 1020.7 hPa | - | - | - | - |
| 1788566088 | 18.89° C | 92% | 1020.6 hPa | - | - | - | - |
| 1788565188 | 18.89° C | 93% | 1020.4 hPa | - | - | - | - |
| 1788564287 | 18.89° C | 90% | 1020.2 hPa | - | - | - | - |
| 1788563387 | 19.44° C | 89% | 1020.1 hPa | - | - | - | - |
| 1788562487 | 19.44° C | 86% | 1019.9 hPa | - | - | - | - |
| 1788561587 | 20° C | 83% | 1020 hPa | - | - | - | - |
| 1788560686 | 20.56° C | 79% | 1019.8 hPa | - | - | - | - |
| 1788559786 | 20.56° C | 79% | 1019.7 hPa | - | - | - | - |
| 1788558886 | 20.56° C | 77% | 1019.6 hPa | - | - | - | - |
| 1788557986 | 21.11° C | 76% | 1019.5 hPa | - | - | - | - |
| 1788557085 | 21.67° C | 71% | 1019.3 hPa | - | - | - | - |
| 1788556185 | 21.67° C | 71% | 1019.2 hPa | - | - | - | - |
| 1788555285 | 22.22° C | 69% | 1019.3 hPa | - | - | - | - |
| 1788554384 | 22.78° C | 65% | 1019.2 hPa | - | - | - | - |
| 1788553484 | 23.33° C | 63% | 1019.3 hPa | - | - | - | - |
| 1788552584 | 23.33° C | 62% | 1019.1 hPa | - | - | - | - |
* Rain since midnight (hover to see other rain measurements)
** Current wind speed in m/s (hover to see current wind gust speed)